Terminal Aerodrome Forecast
Issued by NWS

Home | Current Version | Previous Version | Text Only | Print | Product List | Glossary Off
Versions: 1 2 3 4 5 6 7 8 9 10 11 12 13 14 15 16

000
FTUS43 KICT 190400 AAA
TAFSLN
TAF AMD
KSLN 190400Z 1904/1924 13010KT P6SM SCT015
      TEMPO 1904/1908 BKN015
     FM190800 15008KT 5SM BR BKN010
     FM191500 19010KT P6SM SKC
     FM191800 19015G23KT P6SM SKC=

USA.gov is the U.S. government's official web portal to all federal, state and local government web resources and services.